Time;durP1;ratioP1;P1;durP2;ratioP2;P2;SDS_P1;SDS_P2;PMS_P1;PMS_P2;Temp;Humidity;BMP_temperature;BMP_pressure;BME280_temperature;BME280_humidity;BME280_pressure;Samples;Min_cycle;Max_cycle;Signal;HPM_P1;HPM_P2
2021/01/23 00:02:05;;;;;;;;;;;4.50;99.90;;;;;;5033034;28;20393;-71
2021/01/23 00:04:31;;;;;;;;;;;4.50;99.90;;;;;;5035019;28;19913;-71
2021/01/23 00:06:57;;;;;;;;;;;4.50;99.90;;;;;;5038603;28;19909;-71
2021/01/23 00:09:23;;;;;;;;;;;4.50;99.90;;;;;;5034357;28;19909;-71
2021/01/23 00:11:49;;;;;;;;;;;4.40;99.90;;;;;;5064514;28;19917;-71
2021/01/23 00:14:15;;;;;;;;;;;4.40;99.90;;;;;;5051167;28;19912;-71
2021/01/23 00:16:41;;;;;;;;;;;4.40;99.90;;;;;;5044463;28;19905;-71
2021/01/23 00:19:07;;;;;;;;;;;4.40;99.90;;;;;;5035789;28;19976;-71
2021/01/23 00:21:33;;;;;;;;;;;4.40;99.90;;;;;;5039713;28;19912;-70
2021/01/23 00:23:59;;;;;;;;;;;4.40;99.90;;;;;;5033434;28;19925;-67
2021/01/23 00:26:25;;;;;;;;;;;4.40;99.90;;;;;;5049218;28;19932;-70
2021/01/23 00:28:51;;;;;;;;;;;4.40;99.90;;;;;;5041604;28;19924;-70
2021/01/23 00:31:17;;;;;;;;;;;4.40;99.90;;;;;;5036563;28;19919;-70
2021/01/23 00:33:43;;;;;;;;;;;4.40;99.90;;;;;;5041383;28;19920;-70
2021/01/23 00:36:09;;;;;;;;;;;4.40;99.90;;;;;;5042788;28;19913;-70
2021/01/23 00:38:35;;;;;;;;;;;4.40;99.90;;;;;;5036325;28;19999;-71
2021/01/23 00:41:01;;;;;;;;;;;4.30;99.90;;;;;;5052250;28;20427;-71
2021/01/23 00:43:27;;;;;;;;;;;4.30;99.90;;;;;;5050821;28;20357;-70
2021/01/23 00:45:53;;;;;;;;;;;4.30;99.90;;;;;;5040147;28;20254;-71
2021/01/23 00:48:19;;;;;;;;;;;4.30;99.90;;;;;;5042273;28;20373;-70
2021/01/23 00:50:45;;;;;;;;;;;4.30;99.90;;;;;;5049481;28;19917;-70
2021/01/23 00:53:11;;;;;;;;;;;4.30;99.90;;;;;;5042112;28;20285;-71
2021/01/23 00:55:37;;;;;;;;;;;4.30;99.90;;;;;;5033047;28;20003;-71
2021/01/23 00:58:03;;;;;;;;;;;4.30;99.90;;;;;;5037339;28;20702;-71
2021/01/23 01:00:29;;;;;;;;;;;4.30;99.90;;;;;;5049814;28;19913;-71
2021/01/23 01:02:55;;;;;;;;;;;4.30;99.90;;;;;;5049121;28;19928;-71
2021/01/23 01:05:21;;;;;;;;;;;4.30;99.90;;;;;;5032423;28;19917;-72
2021/01/23 01:07:47;;;;;;;;;;;4.30;99.90;;;;;;5040202;28;19913;-73
2021/01/23 01:10:13;;;;;;;;;;;4.30;99.90;;;;;;5051790;28;19917;-71
2021/01/23 01:12:39;;;;;;;;;;;4.30;99.90;;;;;;5042753;28;20277;-71
2021/01/23 01:15:05;;;;;;;;;;;4.20;99.90;;;;;;5040388;28;21687;-70
2021/01/23 01:17:31;;;;;;;;;;;4.20;99.90;;;;;;5038417;28;19913;-71
2021/01/23 01:19:57;;;;;;;;;;;4.20;99.90;;;;;;5050458;28;20319;-71
2021/01/23 01:22:23;;;;;;;;;;;4.20;99.90;;;;;;5050136;28;20380;-71
2021/01/23 01:24:49;;;;;;;;;;;4.20;99.90;;;;;;5052090;28;19920;-71
2021/01/23 01:27:15;;;;;;;;;;;4.20;99.90;;;;;;5051348;28;19917;-71
2021/01/23 01:29:41;;;;;;;;;;;4.20;99.90;;;;;;5043376;28;19921;-71
2021/01/23 01:32:07;;;;;;;;;;;4.20;99.90;;;;;;5050876;28;19924;-71
2021/01/23 01:34:33;;;;;;;;;;;4.20;99.90;;;;;;5040246;28;19913;-70
2021/01/23 01:36:59;;;;;;;;;;;4.10;99.90;;;;;;5032534;28;19913;-71
2021/01/23 01:39:25;;;;;;;;;;;4.10;99.90;;;;;;5035704;28;20397;-71
2021/01/23 01:41:50;;;;;;;;;;;4.10;99.90;;;;;;5052900;28;19909;-71
2021/01/23 01:44:16;;;;;;;;;;;4.10;99.90;;;;;;5054620;28;19917;-71
2021/01/23 01:46:42;;;;;;;;;;;4.00;99.90;;;;;;5054075;28;19909;-71
2021/01/23 01:49:08;;;;;;;;;;;4.00;99.90;;;;;;5053806;28;19909;-71
2021/01/23 01:51:34;;;;;;;;;;;4.10;99.90;;;;;;5054337;28;19909;-71
2021/01/23 01:54:00;;;;;;;;;;;4.10;99.90;;;;;;5055206;28;19919;-71
2021/01/23 01:56:26;;;;;;;;;;;4.00;99.90;;;;;;5054793;28;20281;-71
2021/01/23 01:58:52;;;;;;;;;;;4.00;99.90;;;;;;5053904;28;19943;-71
2021/01/23 02:01:18;;;;;;;;;;;4.10;99.90;;;;;;5046692;28;19913;-71
2021/01/23 02:04:03;;;;;;;;;;;4.10;99.90;;;;;;5054175;28;19920;-71
2021/01/23 02:06:32;;;;;;;;;;;4.10;99.90;;;;;;5034577;28;19909;-71
2021/01/23 02:09:00;;;;;;;;;;;4.10;99.90;;;;;;5038142;28;19916;-71
2021/01/23 02:11:30;;;;;;;;;;;4.00;99.90;;;;;;5059220;28;19912;-71
2021/01/23 02:14:05;;;;;;;;;;;4.00;99.90;;;;;;5059423;28;19921;-71
2021/01/23 02:16:35;;;;;;;;;;;4.00;99.90;;;;;;5045139;28;19909;-71
2021/01/23 02:19:24;;;;;;;;;;;4.00;99.90;;;;;;5021639;28;19909;-71
2021/01/23 02:22:25;;;;;;;;;;;4.00;99.90;;;;;;5059291;28;20367;-71
2021/01/23 02:24:51;;;;;;;;;;;4.00;99.90;;;;;;5045855;28;19920;-71
2021/01/23 02:27:24;;;;;;;;;;;4.00;99.90;;;;;;5040313;28;20396;-71
2021/01/23 02:30:00;;;;;;;;;;;4.00;99.90;;;;;;5054153;28;19916;-71
2021/01/23 02:32:28;;;;;;;;;;;4.00;99.90;;;;;;5044846;28;19917;-71
2021/01/23 02:34:55;;;;;;;;;;;4.00;99.90;;;;;;5066159;28;19916;-71
2021/01/23 02:37:21;;;;;;;;;;;4.00;99.90;;;;;;5035163;28;20277;-71
2021/01/23 02:39:47;;;;;;;;;;;4.00;99.90;;;;;;5065022;28;19913;-71
2021/01/23 02:42:13;;;;;;;;;;;4.00;99.90;;;;;;5041479;28;20324;-71
2021/01/23 02:44:39;;;;;;;;;;;4.00;99.90;;;;;;5034944;28;19917;-71
2021/01/23 02:47:05;;;;;;;;;;;4.00;99.90;;;;;;5036689;28;20386;-71
2021/01/23 02:49:31;;;;;;;;;;;4.00;99.90;;;;;;5034079;28;19913;-71
2021/01/23 02:52:00;;;;;;;;;;;4.00;99.90;;;;;;5039120;28;19909;-71
2021/01/23 02:54:28;;;;;;;;;;;4.00;99.90;;;;;;5052582;28;20369;-71
2021/01/23 02:56:54;;;;;;;;;;;4.00;99.90;;;;;;5042759;28;19910;-71
2021/01/23 02:59:20;;;;;;;;;;;3.90;99.90;;;;;;5045642;28;19909;-71
2021/01/23 03:01:46;;;;;;;;;;;3.90;99.90;;;;;;5046231;28;19916;-71
2021/01/23 03:04:12;;;;;;;;;;;3.90;99.90;;;;;;5065945;28;20358;-71
2021/01/23 03:06:38;;;;;;;;;;;3.90;99.90;;;;;;5051753;28;20419;-71
2021/01/23 03:09:19;;;;;;;;;;;3.90;99.90;;;;;;5053843;28;20391;-72
2021/01/23 03:11:45;;;;;;;;;;;3.90;99.90;;;;;;5053561;28;19917;-71
2021/01/23 03:14:11;;;;;;;;;;;3.90;99.90;;;;;;5052482;28;19915;-71
2021/01/23 03:16:37;;;;;;;;;;;3.90;99.90;;;;;;5042336;28;19905;-71
2021/01/23 03:19:03;;;;;;;;;;;3.90;99.90;;;;;;5034667;28;19909;-71
2021/01/23 03:21:30;;;;;;;;;;;3.90;99.90;;;;;;5049788;28;19913;-71
2021/01/23 03:23:56;;;;;;;;;;;3.90;99.90;;;;;;5043641;28;19932;-71
2021/01/23 03:26:22;;;;;;;;;;;3.90;99.90;;;;;;5052632;28;20350;-71
2021/01/23 03:28:48;;;;;;;;;;;3.90;99.90;;;;;;5026613;28;19923;-71
2021/01/23 03:31:14;;;;;;;;;;;3.90;99.90;;;;;;5053497;28;20365;-71
2021/01/23 03:33:40;;;;;;;;;;;3.90;99.90;;;;;;5053134;28;19909;-71
2021/01/23 03:36:06;;;;;;;;;;;3.80;99.90;;;;;;5052035;28;19938;-71
2021/01/23 03:38:32;;;;;;;;;;;3.80;99.90;;;;;;5053184;28;20289;-71
2021/01/23 03:40:58;;;;;;;;;;;3.80;99.90;;;;;;5044444;28;19909;-71
2021/01/23 03:43:23;;;;;;;;;;;3.80;99.90;;;;;;5048143;28;19921;-71
2021/01/23 03:45:49;;;;;;;;;;;3.80;99.90;;;;;;5032415;28;19912;-71
2021/01/23 03:48:15;;;;;;;;;;;3.70;99.90;;;;;;5050260;28;19995;-71
2021/01/23 03:50:41;;;;;;;;;;;3.70;99.90;;;;;;5053152;28;20348;-71
2021/01/23 03:53:07;;;;;;;;;;;3.70;99.90;;;;;;5037488;28;19959;-71
2021/01/23 03:55:33;;;;;;;;;;;3.70;99.90;;;;;;5033454;28;20004;-71
2021/01/23 03:57:59;;;;;;;;;;;3.70;99.90;;;;;;5047662;28;19916;-71
2021/01/23 04:00:25;;;;;;;;;;;3.70;99.90;;;;;;5052161;28;19912;-72
2021/01/23 04:02:51;;;;;;;;;;;3.70;99.90;;;;;;5049079;28;19913;-71
2021/01/23 04:05:17;;;;;;;;;;;3.70;99.90;;;;;;5038223;28;19920;-71
2021/01/23 04:07:43;;;;;;;;;;;3.70;99.90;;;;;;5041477;28;19944;-71
2021/01/23 04:10:09;;;;;;;;;;;3.70;99.90;;;;;;5033549;28;19916;-71
2021/01/23 04:12:35;;;;;;;;;;;3.70;99.90;;;;;;5033280;28;20367;-71
2021/01/23 04:15:01;;;;;;;;;;;3.70;99.90;;;;;;5033492;28;19909;-71
2021/01/23 04:17:27;;;;;;;;;;;3.60;99.90;;;;;;5041446;28;19966;-71
2021/01/23 04:19:53;;;;;;;;;;;3.60;99.90;;;;;;5040640;28;19917;-71
2021/01/23 04:22:19;;;;;;;;;;;3.60;99.90;;;;;;5046930;28;19913;-71
2021/01/23 04:24:45;;;;;;;;;;;3.60;99.90;;;;;;5033137;28;20293;-71
2021/01/23 04:27:11;;;;;;;;;;;3.60;99.90;;;;;;5055177;28;20292;-71
2021/01/23 04:29:37;;;;;;;;;;;3.60;99.90;;;;;;5035256;28;19917;-71
2021/01/23 04:32:03;;;;;;;;;;;3.60;99.90;;;;;;5051920;28;19920;-71
2021/01/23 04:34:29;;;;;;;;;;;3.60;99.90;;;;;;5044114;28;20366;-71
2021/01/23 04:36:55;;;;;;;;;;;3.60;99.90;;;;;;5037292;28;19920;-71
2021/01/23 04:39:21;;;;;;;;;;;3.60;99.90;;;;;;5050845;28;19909;-71
2021/01/23 04:41:47;;;;;;;;;;;3.50;99.90;;;;;;5045100;28;19917;-71
2021/01/23 04:44:13;;;;;;;;;;;3.50;99.90;;;;;;5050127;28;19921;-71
2021/01/23 04:46:39;;;;;;;;;;;3.50;99.90;;;;;;5033802;28;19912;-71
2021/01/23 04:49:04;;;;;;;;;;;3.50;99.90;;;;;;5059896;28;19952;-71
2021/01/23 04:51:30;;;;;;;;;;;3.50;99.90;;;;;;5082705;28;20388;-71
2021/01/23 04:53:56;;;;;;;;;;;3.50;99.90;;;;;;5049052;28;19947;-71
2021/01/23 04:56:24;;;;;;;;;;;3.50;99.90;;;;;;5063133;28;20361;-71
2021/01/23 04:58:50;;;;;;;;;;;3.50;99.90;;;;;;5081295;28;19904;-71
2021/01/23 05:01:16;;;;;;;;;;;3.50;99.90;;;;;;5040987;28;20098;-71
2021/01/23 05:03:52;;;;;;;;;;;3.50;99.90;;;;;;5037800;28;20388;-71
2021/01/23 05:06:17;;;;;;;;;;;3.50;99.90;;;;;;5051246;28;19920;-71
2021/01/23 05:08:43;;;;;;;;;;;3.50;99.90;;;;;;5051901;28;20332;-71
2021/01/23 05:11:09;;;;;;;;;;;3.40;99.90;;;;;;5042276;28;19924;-71
2021/01/23 05:13:35;;;;;;;;;;;3.50;99.90;;;;;;5039601;28;20228;-71
2021/01/23 05:16:01;;;;;;;;;;;3.40;99.90;;;;;;5048108;28;19913;-71
2021/01/23 05:18:27;;;;;;;;;;;3.40;99.90;;;;;;5044515;28;20050;-71
2021/01/23 05:20:53;;;;;;;;;;;3.40;99.90;;;;;;5043590;28;19916;-71
2021/01/23 05:23:26;;;;;;;;;;;3.50;99.90;;;;;;5055283;28;19905;-71
2021/01/23 05:25:52;;;;;;;;;;;3.40;99.90;;;;;;5045846;28;19921;-71
2021/01/23 05:28:24;;;;;;;;;;;3.40;99.90;;;;;;5047874;28;19912;-71
2021/01/23 05:30:51;;;;;;;;;;;3.40;99.90;;;;;;5054731;28;20300;-71
2021/01/23 05:33:21;;;;;;;;;;;3.40;99.90;;;;;;5044797;28;19921;-71
2021/01/23 05:36:00;;;;;;;;;;;3.40;99.90;;;;;;5061901;28;19920;-71
2021/01/23 05:38:30;;;;;;;;;;;3.40;99.90;;;;;;5034906;28;19955;-71
2021/01/23 05:40:57;;;;;;;;;;;3.40;99.90;;;;;;5051678;28;19916;-71
2021/01/23 05:43:30;;;;;;;;;;;3.40;99.90;;;;;;5044055;28;19929;-71
2021/01/23 05:45:56;;;;;;;;;;;3.40;99.90;;;;;;5051656;28;19917;-71
2021/01/23 05:48:22;;;;;;;;;;;3.40;99.90;;;;;;5044250;28;19909;-71
2021/01/23 05:50:49;;;;;;;;;;;3.40;99.90;;;;;;5036423;28;19920;-71
2021/01/23 05:53:15;;;;;;;;;;;3.40;99.90;;;;;;5037136;28;19913;-71
2021/01/23 05:55:41;;;;;;;;;;;3.40;99.90;;;;;;5036541;28;19924;-71
2021/01/23 05:58:07;;;;;;;;;;;3.40;99.90;;;;;;5036091;28;19917;-71
2021/01/23 06:00:33;;;;;;;;;;;3.40;99.90;;;;;;5051516;28;19909;-71
2021/01/23 06:02:59;;;;;;;;;;;3.40;99.90;;;;;;5062425;28;19909;-71
2021/01/23 06:05:25;;;;;;;;;;;3.40;99.90;;;;;;5053550;28;19923;-71
2021/01/23 06:07:51;;;;;;;;;;;3.40;99.90;;;;;;5053388;28;20324;-71
2021/01/23 06:10:23;;;;;;;;;;;3.30;99.90;;;;;;5043625;28;20317;-71
2021/01/23 06:12:49;;;;;;;;;;;3.40;99.90;;;;;;5052044;28;19917;-71
2021/01/23 06:15:31;;;;;;;;;;;3.40;99.90;;;;;;5039388;28;19913;-71
2021/01/23 06:17:57;;;;;;;;;;;3.30;99.90;;;;;;5054519;28;19919;-71
2021/01/23 06:20:41;;;;;;;;;;;3.30;99.90;;;;;;5050628;28;19932;-71
2021/01/23 06:23:07;;;;;;;;;;;3.30;99.90;;;;;;5050630;28;19912;-71
2021/01/23 06:25:51;;;;;;;;;;;3.30;99.90;;;;;;5044647;28;19928;-71
2021/01/23 06:28:17;;;;;;;;;;;3.30;99.90;;;;;;5048852;28;19913;-71
2021/01/23 06:30:43;;;;;;;;;;;3.30;99.90;;;;;;5035243;28;19921;-71
2021/01/23 06:33:21;;;;;;;;;;;3.30;99.90;;;;;;5052169;28;19931;-71
2021/01/23 06:36:06;;;;;;;;;;;3.20;99.90;;;;;;5041998;28;19919;-71
2021/01/23 06:38:32;;;;;;;;;;;3.20;99.90;;;;;;5036240;28;19920;-71
2021/01/23 06:41:17;;;;;;;;;;;3.30;99.90;;;;;;5035436;28;19924;-71
2021/01/23 06:44:03;;;;;;;;;;;3.30;99.90;;;;;;5036621;28;19916;-71
2021/01/23 06:46:29;;;;;;;;;;;3.30;99.90;;;;;;5037603;28;19916;-71
2021/01/23 06:49:04;;;;;;;;;;;3.30;99.90;;;;;;5052932;28;19919;-71
2021/01/23 06:51:30;;;;;;;;;;;3.30;99.90;;;;;;5048296;28;19916;-71
2021/01/23 06:54:15;;;;;;;;;;;3.30;99.90;;;;;;5042359;28;19913;-71
2021/01/23 06:56:44;;;;;;;;;;;3.20;99.90;;;;;;5054035;28;19920;-71
2021/01/23 06:59:19;;;;;;;;;;;3.20;99.90;;;;;;5033943;28;19923;-71
2021/01/23 07:01:45;;;;;;;;;;;3.20;99.90;;;;;;5061412;28;19909;-71
2021/01/23 07:04:11;;;;;;;;;;;3.20;99.90;;;;;;5050007;28;19909;-71
2021/01/23 07:06:37;;;;;;;;;;;3.20;99.90;;;;;;5054606;28;19917;-71
2021/01/23 07:09:03;;;;;;;;;;;3.20;99.90;;;;;;5054634;28;19905;-71
2021/01/23 07:11:29;;;;;;;;;;;3.20;99.90;;;;;;5054535;28;19916;-71
2021/01/23 07:13:59;;;;;;;;;;;3.20;99.90;;;;;;5054767;28;19909;-71
2021/01/23 07:16:25;;;;;;;;;;;3.20;99.90;;;;;;5054098;28;19909;-71
2021/01/23 07:18:52;;;;;;;;;;;3.20;99.90;;;;;;5054552;28;19908;-71
2021/01/23 07:21:18;;;;;;;;;;;3.20;99.90;;;;;;5054489;28;20357;-71
2021/01/23 07:23:44;;;;;;;;;;;3.20;99.90;;;;;;5052946;28;19925;-71
2021/01/23 07:26:10;;;;;;;;;;;3.20;99.90;;;;;;5051977;28;20293;-71
2021/01/23 07:28:36;;;;;;;;;;;3.20;99.90;;;;;;5052685;28;20365;-71
2021/01/23 07:31:16;;;;;;;;;;;3.20;99.90;;;;;;5053295;28;19917;-71
2021/01/23 07:33:42;;;;;;;;;;;3.20;99.90;;;;;;5054041;28;20362;-71
2021/01/23 07:36:07;;;;;;;;;;;3.20;99.90;;;;;;5053864;28;19916;-71
2021/01/23 07:38:33;;;;;;;;;;;3.20;99.90;;;;;;5054252;28;19909;-71
2021/01/23 07:40:59;;;;;;;;;;;3.20;99.90;;;;;;5053268;28;19905;-71
2021/01/23 07:43:25;;;;;;;;;;;3.30;99.90;;;;;;5052508;28;19983;-71
2021/01/23 07:45:55;;;;;;;;;;;3.30;99.90;;;;;;5052644;28;20358;-71
2021/01/23 07:48:21;;;;;;;;;;;3.30;99.90;;;;;;5054081;28;19911;-71
2021/01/23 07:50:48;;;;;;;;;;;3.20;99.90;;;;;;5052236;28;19920;-71
2021/01/23 07:53:14;;;;;;;;;;;3.20;99.90;;;;;;5053853;28;19908;-71
2021/01/23 07:55:40;;;;;;;;;;;3.20;99.90;;;;;;5054095;28;19913;-71
2021/01/23 07:58:07;;;;;;;;;;;3.30;99.90;;;;;;5053416;28;19913;-71
2021/01/23 08:00:33;;;;;;;;;;;3.30;99.90;;;;;;5052439;28;19928;-71
2021/01/23 08:02:58;;;;;;;;;;;3.30;99.90;;;;;;5052518;28;20365;-71
2021/01/23 08:05:43;;;;;;;;;;;3.30;99.90;;;;;;5052032;28;20344;-71
2021/01/23 08:08:11;;;;;;;;;;;3.30;99.90;;;;;;5053315;28;19909;-71
2021/01/23 08:10:37;;;;;;;;;;;3.40;99.90;;;;;;5053544;28;19908;-71
2021/01/23 08:13:04;;;;;;;;;;;3.40;99.90;;;;;;5052266;28;19905;-71
2021/01/23 08:15:36;;;;;;;;;;;3.40;99.90;;;;;;5052124;28;19905;-71
2021/01/23 08:18:18;;;;;;;;;;;3.40;99.90;;;;;;5053595;28;19909;-71
2021/01/23 08:20:44;;;;;;;;;;;3.40;99.90;;;;;;5053242;28;19908;-71
2021/01/23 08:23:13;;;;;;;;;;;3.40;99.90;;;;;;5053587;28;19954;-71
2021/01/23 08:25:42;;;;;;;;;;;3.50;99.90;;;;;;5053307;28;19931;-71
2021/01/23 08:28:08;;;;;;;;;;;3.50;99.90;;;;;;5043043;28;20388;-71
2021/01/23 08:30:34;;;;;;;;;;;3.50;99.90;;;;;;5041838;28;19971;-70
2021/01/23 08:33:07;;;;;;;;;;;3.50;99.90;;;;;;5050421;28;19913;-71
2021/01/23 08:35:34;;;;;;;;;;;3.50;99.90;;;;;;5046898;28;19909;-76
2021/01/23 08:38:00;;;;;;;;;;;3.60;99.90;;;;;;5049176;28;20281;-71
2021/01/23 08:40:25;;;;;;;;;;;3.60;99.90;;;;;;5032105;28;19909;-71
2021/01/23 08:42:51;;;;;;;;;;;3.60;99.90;;;;;;5030999;28;19913;-71
2021/01/23 08:45:18;;;;;;;;;;;3.70;99.90;;;;;;5032983;28;20015;-71
2021/01/23 08:47:44;;;;;;;;;;;3.70;99.90;;;;;;5030876;28;20362;-71
2021/01/23 08:50:10;;;;;;;;;;;3.70;99.90;;;;;;5041040;28;19919;-71
2021/01/23 08:52:36;;;;;;;;;;;3.80;99.90;;;;;;5042340;28;19920;-71
2021/01/23 08:55:03;;;;;;;;;;;3.80;99.90;;;;;;5038565;28;19912;-71
2021/01/23 08:57:29;;;;;;;;;;;3.90;99.90;;;;;;5052102;28;19913;-71
2021/01/23 08:59:55;;;;;;;;;;;3.90;99.90;;;;;;5051907;28;19924;-71
2021/01/23 09:02:21;;;;;;;;;;;3.90;99.90;;;;;;5052007;28;19913;-71
2021/01/23 09:04:47;;;;;;;;;;;3.90;99.90;;;;;;5036396;28;20389;-71
2021/01/23 09:07:13;;;;;;;;;;;4.00;99.90;;;;;;5032709;28;19921;-71
2021/01/23 09:09:39;;;;;;;;;;;4.00;99.90;;;;;;5057000;28;19915;-71
2021/01/23 09:12:05;;;;;;;;;;;4.00;99.90;;;;;;5043889;28;19917;-71
2021/01/23 09:14:31;;;;;;;;;;;4.10;99.90;;;;;;5058124;28;19909;-71
2021/01/23 09:16:57;;;;;;;;;;;4.10;99.90;;;;;;5051979;28;20399;-70
2021/01/23 09:19:23;;;;;;;;;;;4.10;99.90;;;;;;5050373;28;19920;-70
2021/01/23 09:21:49;;;;;;;;;;;4.20;99.90;;;;;;5044676;28;19916;-70
2021/01/23 09:24:15;;;;;;;;;;;4.20;99.90;;;;;;5052019;28;19913;-70
2021/01/23 09:26:41;;;;;;;;;;;4.20;99.90;;;;;;5031123;28;19929;-70
2021/01/23 09:29:07;;;;;;;;;;;4.30;99.90;;;;;;5033569;28;19944;-70
2021/01/23 09:31:34;;;;;;;;;;;4.30;99.90;;;;;;5033708;28;20362;-70
2021/01/23 09:34:00;;;;;;;;;;;4.40;99.90;;;;;;5048174;28;19920;-70
2021/01/23 09:36:26;;;;;;;;;;;4.40;99.90;;;;;;5039864;28;19913;-70
2021/01/23 09:38:52;;;;;;;;;;;4.40;99.90;;;;;;5056486;28;19909;-70
2021/01/23 09:41:18;;;;;;;;;;;4.40;99.90;;;;;;5047947;28;19959;-70
2021/01/23 09:43:44;;;;;;;;;;;4.40;99.90;;;;;;5041806;28;19967;-70
2021/01/23 09:46:10;;;;;;;;;;;4.50;99.90;;;;;;5032417;28;20362;-70
2021/01/23 09:48:36;;;;;;;;;;;4.50;99.90;;;;;;5047882;28;20289;-70
2021/01/23 09:51:02;;;;;;;;;;;4.60;99.90;;;;;;5036979;28;19962;-70
2021/01/23 09:53:28;;;;;;;;;;;4.60;99.90;;;;;;5052653;28;19920;-70
2021/01/23 09:55:54;;;;;;;;;;;4.50;99.90;;;;;;5051707;28;20366;-70
2021/01/23 09:58:20;;;;;;;;;;;4.60;99.90;;;;;;5058222;28;19920;-70
2021/01/23 10:00:47;;;;;;;;;;;4.60;99.90;;;;;;5055130;28;20424;-70
2021/01/23 10:03:13;;;;;;;;;;;4.60;99.90;;;;;;5041619;28;19920;-70
2021/01/23 10:05:39;;;;;;;;;;;4.60;99.90;;;;;;5065173;28;20392;-70
2021/01/23 10:08:05;;;;;;;;;;;4.60;99.90;;;;;;5044964;28;19909;-70
2021/01/23 10:10:31;;;;;;;;;;;4.60;99.90;;;;;;5061500;28;19915;-70
2021/01/23 10:12:57;;;;;;;;;;;4.70;99.90;;;;;;5043253;28;19920;-70
2021/01/23 10:15:23;;;;;;;;;;;4.70;99.90;;;;;;5046468;28;19925;-70
2021/01/23 10:17:49;;;;;;;;;;;4.80;99.90;;;;;;5059623;28;19916;-70
2021/01/23 10:20:15;;;;;;;;;;;4.80;99.90;;;;;;5043622;28;19909;-70
2021/01/23 10:22:41;;;;;;;;;;;4.80;99.90;;;;;;5052673;28;20345;-70
2021/01/23 10:25:07;;;;;;;;;;;4.90;99.90;;;;;;5053569;28;19924;-70
2021/01/23 10:27:33;;;;;;;;;;;4.90;99.90;;;;;;5058212;28;19921;-70
2021/01/23 10:29:59;;;;;;;;;;;5.00;99.90;;;;;;5054593;28;19929;-70
2021/01/23 10:32:25;;;;;;;;;;;5.00;99.90;;;;;;5059023;28;19913;-70
2021/01/23 10:34:51;;;;;;;;;;;5.00;99.90;;;;;;5055884;28;19912;-70
2021/01/23 10:37:18;;;;;;;;;;;5.10;99.90;;;;;;5057282;28;19967;-72
2021/01/23 10:39:44;;;;;;;;;;;5.10;99.90;;;;;;5044414;28;20038;-71
2021/01/23 10:42:10;;;;;;;;;;;5.10;99.90;;;;;;5044815;28;19909;-71
2021/01/23 10:44:39;;;;;;;;;;;5.10;99.90;;;;;;5050935;28;19909;-70
2021/01/23 10:47:06;;;;;;;;;;;5.10;99.90;;;;;;5046086;28;19913;-71
2021/01/23 10:49:32;;;;;;;;;;;5.10;99.90;;;;;;5040549;28;20372;-71
2021/01/23 10:51:58;;;;;;;;;;;5.10;99.90;;;;;;5034710;28;20300;-71
2021/01/23 10:54:24;;;;;;;;;;;5.10;99.90;;;;;;5037371;28;19913;-71
2021/01/23 10:56:50;;;;;;;;;;;5.10;99.90;;;;;;5038268;28;19966;-70
2021/01/23 10:59:16;;;;;;;;;;;5.10;99.90;;;;;;5051873;28;19963;-72
2021/01/23 11:01:42;;;;;;;;;;;5.10;99.90;;;;;;5036851;28;19920;-71
2021/01/23 11:04:08;;;;;;;;;;;5.10;99.90;;;;;;5052724;28;19916;-71
2021/01/23 11:06:33;;;;;;;;;;;5.10;99.90;;;;;;5053892;28;19924;-71
2021/01/23 11:08:59;;;;;;;;;;;5.10;99.90;;;;;;5053712;28;20353;-70
2021/01/23 11:11:26;;;;;;;;;;;5.10;99.90;;;;;;5044748;28;19919;-73
2021/01/23 11:13:52;;;;;;;;;;;5.20;99.90;;;;;;5052656;28;19909;-70
2021/01/23 11:16:18;;;;;;;;;;;5.20;99.90;;;;;;5063686;28;19939;-72
2021/01/23 11:18:44;;;;;;;;;;;5.20;99.90;;;;;;5060683;28;20328;-73
2021/01/23 11:21:10;;;;;;;;;;;5.30;99.90;;;;;;5060637;28;19959;-73
2021/01/23 11:23:36;;;;;;;;;;;5.40;99.90;;;;;;5059728;28;19913;-73
2021/01/23 11:26:02;;;;;;;;;;;5.40;99.90;;;;;;5055282;28;19921;-72
2021/01/23 11:28:28;;;;;;;;;;;5.40;99.90;;;;;;5053963;28;19916;-73
2021/01/23 11:30:54;;;;;;;;;;;5.40;99.90;;;;;;5055739;28;20332;-73
2021/01/23 11:33:21;;;;;;;;;;;5.50;99.90;;;;;;5058985;28;19920;-74
2021/01/23 11:35:47;;;;;;;;;;;5.60;99.90;;;;;;5039761;28;19927;-72
2021/01/23 11:38:14;;;;;;;;;;;5.70;99.90;;;;;;5036956;28;19920;-75
2021/01/23 11:40:40;;;;;;;;;;;5.70;99.90;;;;;;5045808;28;20389;-76
2021/01/23 11:43:06;;;;;;;;;;;5.80;99.90;;;;;;5033840;28;20389;-72
2021/01/23 11:45:32;;;;;;;;;;;5.90;99.90;;;;;;5059447;28;19924;-71
2021/01/23 11:47:58;;;;;;;;;;;5.90;99.90;;;;;;5054491;28;19920;-70
2021/01/23 11:50:27;;;;;;;;;;;6.00;99.90;;;;;;5052863;28;20538;-72
2021/01/23 11:52:53;;;;;;;;;;;6.00;99.90;;;;;;5029381;28;19913;-71
2021/01/23 11:55:19;;;;;;;;;;;6.00;99.90;;;;;;5050266;28;19912;-72
2021/01/23 11:57:45;;;;;;;;;;;6.00;99.90;;;;;;5040579;28;19913;-72
2021/01/23 12:00:11;;;;;;;;;;;6.00;99.90;;;;;;5053474;28;19955;-72
2021/01/23 12:02:37;;;;;;;;;;;6.00;99.90;;;;;;5052868;28;19935;-72
2021/01/23 12:05:04;;;;;;;;;;;6.00;99.90;;;;;;5052797;28;20365;-71
2021/01/23 12:07:30;;;;;;;;;;;6.00;99.90;;;;;;5052311;28;19908;-72
2021/01/23 12:09:56;;;;;;;;;;;5.90;99.90;;;;;;5053274;28;20012;-71
2021/01/23 12:12:22;;;;;;;;;;;5.90;99.90;;;;;;5041192;28;19916;-71
2021/01/23 12:14:48;;;;;;;;;;;5.90;99.90;;;;;;5044031;28;19921;-72
2021/01/23 12:17:14;;;;;;;;;;;5.90;99.90;;;;;;5053014;28;19916;-71
2021/01/23 12:19:42;;;;;;;;;;;5.90;99.90;;;;;;5054597;28;19908;-71
2021/01/23 12:22:09;;;;;;;;;;;5.90;99.90;;;;;;5062816;28;20285;-71
2021/01/23 12:24:35;;;;;;;;;;;5.90;99.90;;;;;;5040285;28;19921;-72
2021/01/23 12:27:01;;;;;;;;;;;5.90;99.90;;;;;;5038238;28;20006;-71
2021/01/23 12:29:27;;;;;;;;;;;5.90;99.90;;;;;;5033882;28;19921;-72
2021/01/23 12:31:53;;;;;;;;;;;5.90;99.90;;;;;;5073569;28;20281;-72
2021/01/23 12:34:19;;;;;;;;;;;5.90;99.90;;;;;;5048497;28;20361;-71
2021/01/23 12:36:45;;;;;;;;;;;5.90;99.90;;;;;;5042980;28;19920;-72
2021/01/23 12:39:11;;;;;;;;;;;5.90;99.90;;;;;;5044668;28;19913;-75
2021/01/23 12:41:37;;;;;;;;;;;5.80;99.90;;;;;;5044572;28;19913;-72
2021/01/23 12:44:03;;;;;;;;;;;5.70;99.90;;;;;;5032949;28;19921;-72
2021/01/23 12:46:29;;;;;;;;;;;5.70;99.90;;;;;;5058685;28;19920;-72
2021/01/23 12:48:55;;;;;;;;;;;5.70;99.90;;;;;;5037031;28;20004;-72
2021/01/23 12:51:21;;;;;;;;;;;5.70;99.90;;;;;;5052970;28;19958;-71
2021/01/23 12:53:47;;;;;;;;;;;5.60;99.90;;;;;;5052460;28;20022;-71
2021/01/23 12:56:13;;;;;;;;;;;5.60;99.90;;;;;;5058046;28;19919;-72
2021/01/23 12:58:38;;;;;;;;;;;5.60;99.90;;;;;;5063572;28;19912;-72
2021/01/23 13:01:04;;;;;;;;;;;5.60;99.90;;;;;;5059686;28;20273;-72
2021/01/23 13:03:30;;;;;;;;;;;5.50;99.90;;;;;;5052701;28;20423;-72
2021/01/23 13:05:56;;;;;;;;;;;5.40;99.90;;;;;;5046432;28;19989;-72
2021/01/23 13:08:22;;;;;;;;;;;5.40;99.90;;;;;;5052488;28;20377;-72
2021/01/23 13:10:48;;;;;;;;;;;5.40;99.90;;;;;;5039656;28;19916;-72
2021/01/23 13:13:14;;;;;;;;;;;5.40;99.90;;;;;;5058031;28;19955;-72
2021/01/23 13:15:40;;;;;;;;;;;5.40;99.90;;;;;;5048980;28;20370;-71
2021/01/23 13:18:07;;;;;;;;;;;5.30;99.90;;;;;;5051749;28;19913;-72
2021/01/23 13:20:33;;;;;;;;;;;5.30;99.90;;;;;;5051996;28;19912;-72
2021/01/23 13:22:59;;;;;;;;;;;5.30;99.90;;;;;;5051281;28;19912;-72
2021/01/23 13:25:25;;;;;;;;;;;5.20;99.90;;;;;;5050161;28;19935;-72
2021/01/23 13:27:51;;;;;;;;;;;5.20;99.90;;;;;;5050306;28;19913;-72
2021/01/23 13:30:17;;;;;;;;;;;5.20;99.90;;;;;;5036635;28;19924;-72
2021/01/23 13:32:46;;;;;;;;;;;5.20;99.90;;;;;;5035506;28;19917;-72
2021/01/23 13:35:12;;;;;;;;;;;5.20;99.90;;;;;;5054331;28;19920;-72
2021/01/23 13:37:38;;;;;;;;;;;5.20;99.90;;;;;;5038819;28;19917;-72
2021/01/23 13:40:04;;;;;;;;;;;5.10;99.90;;;;;;5043253;28;20297;-72
2021/01/23 13:42:30;;;;;;;;;;;5.00;99.90;;;;;;5037283;28;19909;-72
2021/01/23 13:44:56;;;;;;;;;;;5.00;99.90;;;;;;5062513;28;19909;-72
2021/01/23 13:47:22;;;;;;;;;;;5.00;99.90;;;;;;5054145;28;19924;-72
2021/01/23 13:49:48;;;;;;;;;;;5.00;99.90;;;;;;5051740;28;19925;-72
2021/01/23 13:52:14;;;;;;;;;;;5.00;99.90;;;;;;5039834;28;19913;-72
2021/01/23 13:54:41;;;;;;;;;;;5.10;99.90;;;;;;5037621;28;19983;-72
2021/01/23 13:57:07;;;;;;;;;;;5.10;99.90;;;;;;5036020;28;20350;-72
2021/01/23 13:59:33;;;;;;;;;;;5.10;99.90;;;;;;5037277;28;19916;-72
2021/01/23 14:01:59;;;;;;;;;;;5.10;99.90;;;;;;5035845;28;19913;-72
2021/01/23 14:04:25;;;;;;;;;;;5.10;99.90;;;;;;5035952;28;19939;-72
2021/01/23 14:06:51;;;;;;;;;;;5.00;99.90;;;;;;5042605;28;19917;-72
2021/01/23 14:09:17;;;;;;;;;;;5.00;99.90;;;;;;5039946;28;19936;-72
2021/01/23 14:11:43;;;;;;;;;;;5.00;99.90;;;;;;5043978;28;19913;-71
2021/01/23 14:14:09;;;;;;;;;;;5.00;99.90;;;;;;5058626;28;19909;-72
2021/01/23 14:16:35;;;;;;;;;;;4.90;99.90;;;;;;5054647;28;19909;-72
2021/01/23 14:19:01;;;;;;;;;;;4.90;99.90;;;;;;5055538;28;19951;-72
2021/01/23 14:21:27;;;;;;;;;;;4.80;99.90;;;;;;5055011;28;19915;-71
2021/01/23 14:23:53;;;;;;;;;;;4.80;99.90;;;;;;5055520;28;19917;-71
2021/01/23 14:26:19;;;;;;;;;;;4.80;99.90;;;;;;5055688;28;19917;-72
2021/01/23 14:28:45;;;;;;;;;;;4.70;99.90;;;;;;5055232;28;20321;-71
2021/01/23 14:31:10;;;;;;;;;;;4.70;99.90;;;;;;5055444;28;19916;-71